West Chicago, IL (60185)

08:25 PM CDT die 23o August, anno 2016 (GMT -0500)
Ingalton Hills Estates | | Change Station

Elev 780 ft 41.91 °N, 88.20 °W | Updated 4 minutes ago

Overcast
Aequaliter Nubila
75.0 °F
Feels Like 77 °F
N
2.0
Ventus Variabilis Ventus from Magis Zephyrus quam Auster

Hodie
High -- | Low -- °F
--% Chance of Precip.
Yesterday
High -- | Low -- °F
Precip. -- in
Pressio 30.10 in
Visibilitas 10.0 milia passuum
Clouds Aequaliter Nubila 4900 ft
Index Caloris 77 °F
Frigus in quo Ros apparet 62 °F
Umor 64%
Rainfall 0.00 in
Snow Depth Not available.
6:09 AM 7:40 PM
Waning Gibbous, 62% visible
METAR KDPA 240052Z 17007KT 10SM OVC049 24/17 A3011 RMK AO2 SLP191 T02390167
Pressio 30.10 in
Visibilitas 10.0 milia passuum
Clouds Aequaliter Nubila 4900 ft
Index Caloris 77 °F
Frigus in quo Ros apparet 62 °F
Umor 64%
Rainfall 0.00 in
Snow Depth Not available.
6:09 AM 7:40 PM
Waning Gibbous, 62% visible
METAR KDPA 240052Z 17007KT 10SM OVC049 24/17 A3011 RMK AO2 SLP191 T02390167

10-Day Weather Forecast

Almanac

Astronomy

Aug. 23, 2016 Rise Set
Actual Time
Civil Twilight
Nautical Twilight
Astronomical Twilight
Moon
Length Of Visible Light
Length of Day
Tomorrow will be .
, % of the Moon is Illuminated

Today's Extremes

State Highs State Lows

Community

WunderPhotos

Upload Photos

1,934,517 photos uploaded!

WunderBlog® & News

Nearby

Air Quality

  Air Quality AQ Index Pollutant
Not available.

Snow Depth

Station Depth Elevation

Earthquake Activity

City Distance Mag. Time & Date
Minimum magnitude displayed is 2.5.

Coastal Water Temperatures

Locus Calor

Stations

Nearby Weather Stations

Station Location Temp Frigus Venti Frigus in quo Ros apparet Umor Ventus Precip. Elev Renovata Type
                   

Watches & Warnings

There are currently no watches in effect.